Asbury, Illinois
Current Conditions -  °F | °C
As of 5:55 PM on Friday 19 Dec 2014 (Local Time) from KCUL Reporting Station
Clear Clear  
Wind Chill: 34°   Ceiling: Unl
Heat Index: 34°   Visibility: 10mi
Dew Point: 29°   Wind: 3mph
Humidity: 82%   Direction: 50°NE
Pressure: 30.3"   Gusts: NA
Location:  37.8866°N, 88.266°W
Report Text: KCUL 192355Z AUTO 05003KT 10SM CLR 01/M02 A3030 RMK AO2 T00111017 10040 20011
Loading
Personal Weather Stations






























Interactive Weather Map New forecast layout! Learn more

10-Day Weather Forecast

Advertisements
Track Severe Weather on mobile